SHT8E EGLL-EGPH
Flight info
| Callsign | SHT8E |
|---|---|
| Flight time | 0h 54m |
| Altitude | 32000 |
| Route | ULTIB T420 TNT UN57 POL UN601 RIBEL DCT INPIP |
| Aircraft | A320/M-SDE3FGHIRWY/LB1 |
Departure
| Time | 2026-04-20 20:29 |
|---|---|
| Airport | London Heathrow Airport (EGLL) |
Arrival
| Time | 2026-04-20 21:24 |
|---|---|
| Airport | Edinburgh Airport (EGPH) |
| Time | Latitude | Longitude | Altitude | Speed | Heading |
|---|---|---|---|---|---|
| 2026-04-20 19:37 | 51.47400 | -0.48587 | 86 ft | 0 kts | 269° |
| 2026-04-20 20:22 | 51.47400 | -0.48566 | 86 ft | 4 kts | 269° |
| 2026-04-20 20:22 | 51.47400 | -0.48529 | 87 ft | 2 kts | 270° |
| 2026-04-20 20:22 | 51.47403 | -0.48492 | 90 ft | 4 kts | 231° |
| 2026-04-20 20:22 | 51.47422 | -0.48475 | 86 ft | 3 kts | 179° |
| 2026-04-20 20:23 | 51.47439 | -0.48475 | 90 ft | 0 kts | 179° |
| 2026-04-20 20:25 | 51.47428 | -0.48475 | 86 ft | 4 kts | 179° |
| 2026-04-20 20:26 | 51.47378 | -0.48474 | 90 ft | 10 kts | 179° |
| 2026-04-20 20:26 | 51.47295 | -0.48473 | 88 ft | 13 kts | 179° |
| 2026-04-20 20:26 | 51.47193 | -0.48472 | 87 ft | 16 kts | 179° |
| 2026-04-20 20:26 | 51.47074 | -0.48471 | 86 ft | 18 kts | 180° |
| 2026-04-20 20:27 | 51.46942 | -0.48473 | 86 ft | 19 kts | 180° |
| 2026-04-20 20:27 | 51.46825 | -0.48472 | 88 ft | 17 kts | 178° |
| 2026-04-20 20:27 | 51.46715 | -0.48468 | 89 ft | 16 kts | 179° |
| 2026-04-20 20:27 | 51.46598 | -0.48467 | 86 ft | 15 kts | 180° |
| 2026-04-20 20:28 | 51.46503 | -0.48466 | 88 ft | 11 kts | 176° |
| 2026-04-20 20:28 | 51.46478 | -0.48374 | 89 ft | 11 kts | 90° |
| 2026-04-20 20:28 | 51.46478 | -0.48167 | 88 ft | 39 kts | 89° |
| 2026-04-20 20:28 | 51.46483 | -0.47346 | 86 ft | 104 kts | 89° |
| 2026-04-20 20:29 | 51.46488 | -0.45906 | 89 ft | 152 kts | 89° |
| 2026-04-20 20:29 | 51.46520 | -0.44223 | 614 ft | 147 kts | 88° |
| 2026-04-20 20:29 | 51.46538 | -0.42603 | 1184 ft | 144 kts | 86° |
| 2026-04-20 20:29 | 51.46657 | -0.41033 | 1672 ft | 143 kts | 60° |
| 2026-04-20 20:30 | 51.47287 | -0.39848 | 1991 ft | 148 kts | 47° |
| 2026-04-20 20:30 | 51.48026 | -0.38494 | 2144 ft | 171 kts | 50° |
| 2026-04-20 20:30 | 51.48797 | -0.37017 | 2687 ft | 174 kts | 51° |
| 2026-04-20 20:30 | 51.49567 | -0.35537 | 3299 ft | 174 kts | 51° |
| 2026-04-20 20:31 | 51.50385 | -0.33980 | 3654 ft | 192 kts | 51° |
| 2026-04-20 20:31 | 51.51277 | -0.32279 | 3956 ft | 212 kts | 51° |
| 2026-04-20 20:31 | 51.52207 | -0.30244 | 4292 ft | 236 kts | 65° |
| 2026-04-20 20:31 | 51.52789 | -0.27707 | 4946 ft | 247 kts | 71° |
| 2026-04-20 20:32 | 51.53347 | -0.25085 | 5764 ft | 252 kts | 71° |
| 2026-04-20 20:32 | 51.54147 | -0.22559 | 6571 ft | 258 kts | 47° |
| 2026-04-20 20:32 | 51.55706 | -0.21115 | 7340 ft | 266 kts | 13° |
| 2026-04-20 20:32 | 51.57568 | -0.21159 | 8141 ft | 273 kts | 352° |
| 2026-04-20 20:33 | 51.59433 | -0.21914 | 8964 ft | 277 kts | 345° |
| 2026-04-20 20:33 | 51.61272 | -0.22897 | 9747 ft | 282 kts | 338° |
| 2026-04-20 20:33 | 51.62937 | -0.24612 | 10500 ft | 287 kts | 322° |
| 2026-04-20 20:33 | 51.64586 | -0.26599 | 10787 ft | 308 kts | 327° |
| 2026-04-20 20:34 | 51.66447 | -0.28527 | 11060 ft | 326 kts | 329° |
| 2026-04-20 20:34 | 51.68418 | -0.30414 | 11655 ft | 332 kts | 330° |
| 2026-04-20 20:34 | 51.70425 | -0.32282 | 12348 ft | 334 kts | 330° |
| 2026-04-20 20:34 | 51.72444 | -0.34158 | 13039 ft | 336 kts | 330° |
| 2026-04-20 20:35 | 51.74470 | -0.36061 | 13736 ft | 338 kts | 329° |
| 2026-04-20 20:35 | 51.76499 | -0.37997 | 14418 ft | 339 kts | 329° |
| 2026-04-20 20:35 | 51.78529 | -0.39952 | 15077 ft | 341 kts | 328° |
| 2026-04-20 20:35 | 51.80564 | -0.41926 | 15722 ft | 342 kts | 328° |
| 2026-04-20 20:36 | 51.82604 | -0.43909 | 16335 ft | 343 kts | 328° |
| 2026-04-20 20:36 | 51.84660 | -0.45908 | 16935 ft | 345 kts | 328° |
| 2026-04-20 20:36 | 51.86717 | -0.47912 | 17548 ft | 346 kts | 328° |
| 2026-04-20 20:36 | 51.88788 | -0.49928 | 18147 ft | 348 kts | 328° |
| 2026-04-20 20:37 | 51.90868 | -0.51950 | 18752 ft | 349 kts | 327° |
| 2026-04-20 20:37 | 51.92952 | -0.53982 | 19377 ft | 350 kts | 327° |
| 2026-04-20 20:37 | 51.95016 | -0.55998 | 19998 ft | 352 kts | 327° |
| 2026-04-20 20:37 | 51.97115 | -0.58050 | 20614 ft | 353 kts | 326° |
| 2026-04-20 20:38 | 51.99220 | -0.60105 | 21229 ft | 353 kts | 326° |
| 2026-04-20 20:38 | 52.01329 | -0.62158 | 21801 ft | 354 kts | 326° |
| 2026-04-20 20:38 | 52.03449 | -0.64228 | 22259 ft | 358 kts | 327° |
| 2026-04-20 20:38 | 52.05597 | -0.66333 | 22720 ft | 361 kts | 326° |
| 2026-04-20 20:39 | 52.07753 | -0.68454 | 23207 ft | 363 kts | 326° |
| 2026-04-20 20:39 | 52.09913 | -0.70585 | 23694 ft | 364 kts | 326° |
| 2026-04-20 20:39 | 52.12083 | -0.72726 | 24179 ft | 365 kts | 326° |
| 2026-04-20 20:39 | 52.14261 | -0.74870 | 24625 ft | 367 kts | 326° |
| 2026-04-20 20:40 | 52.16451 | -0.77029 | 25052 ft | 369 kts | 325° |
| 2026-04-20 20:40 | 52.18654 | -0.79209 | 25467 ft | 371 kts | 325° |
| 2026-04-20 20:40 | 52.20862 | -0.81393 | 25863 ft | 373 kts | 325° |
| 2026-04-20 20:40 | 52.23088 | -0.83601 | 26246 ft | 375 kts | 325° |
| 2026-04-20 20:41 | 52.25323 | -0.85821 | 26615 ft | 377 kts | 325° |
| 2026-04-20 20:41 | 52.27568 | -0.88055 | 26971 ft | 379 kts | 325° |
| 2026-04-20 20:41 | 52.29826 | -0.90303 | 27312 ft | 381 kts | 325° |
| 2026-04-20 20:41 | 52.32096 | -0.92557 | 27652 ft | 384 kts | 325° |
| 2026-04-20 20:42 | 52.34389 | -0.94833 | 27968 ft | 386 kts | 325° |
| 2026-04-20 20:42 | 52.36691 | -0.97122 | 28309 ft | 388 kts | 325° |
| 2026-04-20 20:42 | 52.39003 | -0.99431 | 28632 ft | 391 kts | 324° |
| 2026-04-20 20:42 | 52.41326 | -1.01756 | 28976 ft | 392 kts | 324° |
| 2026-04-20 20:43 | 52.43663 | -1.04097 | 29278 ft | 394 kts | 324° |
| 2026-04-20 20:43 | 52.46005 | -1.06444 | 29587 ft | 396 kts | 324° |
| 2026-04-20 20:43 | 52.48362 | -1.08811 | 29875 ft | 398 kts | 324° |
| 2026-04-20 20:43 | 52.50726 | -1.11188 | 30287 ft | 397 kts | 324° |
| 2026-04-20 20:44 | 52.53076 | -1.13554 | 30692 ft | 397 kts | 324° |
| 2026-04-20 20:44 | 52.55434 | -1.15930 | 31038 ft | 398 kts | 324° |
| 2026-04-20 20:44 | 52.57796 | -1.18305 | 31378 ft | 399 kts | 325° |
| 2026-04-20 20:44 | 52.60168 | -1.20691 | 31723 ft | 400 kts | 325° |
| 2026-04-20 20:45 | 52.62540 | -1.23086 | 32071 ft | 400 kts | 325° |
| 2026-04-20 20:45 | 52.64917 | -1.25494 | 32302 ft | 403 kts | 325° |
| 2026-04-20 20:45 | 52.69698 | -1.30346 | 32350 ft | 404 kts | 325° |
| 2026-04-20 20:46 | 52.74479 | -1.35207 | 32348 ft | 404 kts | 325° |
| 2026-04-20 20:46 | 52.79265 | -1.40086 | 32359 ft | 405 kts | 325° |
| 2026-04-20 20:47 | 52.84076 | -1.45005 | 32365 ft | 408 kts | 325° |
| 2026-04-20 20:47 | 52.88899 | -1.49951 | 32353 ft | 409 kts | 325° |
| 2026-04-20 20:48 | 52.93738 | -1.54940 | 32351 ft | 410 kts | 326° |
| 2026-04-20 20:48 | 52.98585 | -1.59943 | 32336 ft | 411 kts | 326° |
| 2026-04-20 20:49 | 53.03449 | -1.64970 | 32339 ft | 412 kts | 326° |
| 2026-04-20 20:49 | 53.08668 | -1.69015 | 32330 ft | 418 kts | 337° |
| 2026-04-20 20:50 | 53.14131 | -1.72383 | 32321 ft | 419 kts | 337° |
| 2026-04-20 20:50 | 53.19608 | -1.75772 | 32322 ft | 421 kts | 337° |
| 2026-04-20 20:51 | 53.25105 | -1.79202 | 32322 ft | 423 kts | 337° |
| 2026-04-20 20:51 | 53.30620 | -1.82657 | 32322 ft | 424 kts | 337° |
| 2026-04-20 20:52 | 53.36152 | -1.86126 | 32320 ft | 425 kts | 338° |
| 2026-04-20 20:52 | 53.41705 | -1.89600 | 32322 ft | 426 kts | 338° |
| 2026-04-20 20:53 | 53.47262 | -1.93093 | 32330 ft | 427 kts | 338° |
| 2026-04-20 20:53 | 53.52853 | -1.96630 | 32338 ft | 429 kts | 338° |
| 2026-04-20 20:54 | 53.58429 | -2.00156 | 32340 ft | 429 kts | 338° |
| 2026-04-20 20:54 | 53.64022 | -2.03700 | 32341 ft | 429 kts | 338° |
| 2026-04-20 20:55 | 53.69610 | -2.07259 | 32340 ft | 430 kts | 338° |
| 2026-04-20 20:55 | 53.75210 | -2.10848 | 32346 ft | 430 kts | 338° |
| 2026-04-20 20:56 | 53.80784 | -2.14583 | 32355 ft | 431 kts | 337° |
| 2026-04-20 20:56 | 53.86330 | -2.18428 | 32357 ft | 431 kts | 336° |
| 2026-04-20 20:57 | 53.91880 | -2.22266 | 32384 ft | 431 kts | 337° |
| 2026-04-20 20:57 | 53.97434 | -2.26086 | 32385 ft | 431 kts | 337° |
| 2026-04-20 20:58 | 54.02995 | -2.29903 | 32342 ft | 431 kts | 337° |
| 2026-04-20 20:58 | 54.08528 | -2.33710 | 32346 ft | 432 kts | 337° |
| 2026-04-20 20:59 | 54.14105 | -2.37573 | 32365 ft | 433 kts | 337° |
| 2026-04-20 20:59 | 54.19685 | -2.41453 | 32364 ft | 433 kts | 337° |
| 2026-04-20 21:00 | 54.25270 | -2.45341 | 32365 ft | 434 kts | 337° |
| 2026-04-20 21:00 | 54.30856 | -2.49249 | 32367 ft | 434 kts | 337° |
| 2026-04-20 21:01 | 54.36443 | -2.53175 | 32369 ft | 434 kts | 337° |
| 2026-04-20 21:01 | 54.42045 | -2.57114 | 32374 ft | 435 kts | 337° |
| 2026-04-20 21:02 | 54.47647 | -2.61045 | 32371 ft | 434 kts | 337° |
| 2026-04-20 21:02 | 54.50422 | -2.63000 | 32115 ft | 429 kts | 337° |
| 2026-04-20 21:02 | 54.53174 | -2.64944 | 31864 ft | 426 kts | 337° |
| 2026-04-20 21:03 | 54.55912 | -2.66883 | 31611 ft | 424 kts | 337° |
| 2026-04-20 21:03 | 54.58633 | -2.68820 | 31365 ft | 422 kts | 336° |
| 2026-04-20 21:03 | 54.61339 | -2.70752 | 31113 ft | 420 kts | 337° |
| 2026-04-20 21:03 | 54.64029 | -2.72671 | 30794 ft | 416 kts | 337° |
| 2026-04-20 21:04 | 54.66692 | -2.74570 | 30285 ft | 413 kts | 337° |
| 2026-04-20 21:04 | 54.68443 | -2.75821 | 29950 ft | 411 kts | 337° |
| 2026-04-20 21:04 | 54.71077 | -2.77705 | 29453 ft | 408 kts | 337° |
| 2026-04-20 21:04 | 54.73691 | -2.79570 | 28967 ft | 405 kts | 337° |
| 2026-04-20 21:05 | 54.76291 | -2.81422 | 28465 ft | 403 kts | 337° |
| 2026-04-20 21:05 | 54.78872 | -2.83268 | 27981 ft | 400 kts | 337° |
| 2026-04-20 21:05 | 54.81435 | -2.85111 | 27507 ft | 398 kts | 337° |
| 2026-04-20 21:05 | 54.83992 | -2.86955 | 27039 ft | 397 kts | 337° |
| 2026-04-20 21:06 | 54.86529 | -2.88791 | 26579 ft | 394 kts | 337° |
| 2026-04-20 21:06 | 54.89055 | -2.90621 | 26076 ft | 394 kts | 337° |
| 2026-04-20 21:06 | 54.91591 | -2.92456 | 25500 ft | 395 kts | 336° |
| 2026-04-20 21:06 | 54.94138 | -2.94293 | 24940 ft | 397 kts | 337° |
| 2026-04-20 21:07 | 54.96695 | -2.96136 | 24376 ft | 398 kts | 337° |
| 2026-04-20 21:07 | 54.99258 | -2.97988 | 23812 ft | 400 kts | 338° |
| 2026-04-20 21:07 | 55.01827 | -2.99850 | 23250 ft | 401 kts | 338° |
| 2026-04-20 21:07 | 55.04406 | -3.01722 | 22689 ft | 401 kts | 338° |
| 2026-04-20 21:08 | 55.06984 | -3.03597 | 22121 ft | 401 kts | 338° |
| 2026-04-20 21:08 | 55.09553 | -3.05470 | 21699 ft | 398 kts | 338° |
| 2026-04-20 21:08 | 55.12091 | -3.07324 | 21279 ft | 394 kts | 338° |
| 2026-04-20 21:08 | 55.14615 | -3.09170 | 20820 ft | 392 kts | 338° |
| 2026-04-20 21:09 | 55.17124 | -3.11008 | 20358 ft | 389 kts | 338° |
| 2026-04-20 21:09 | 55.19613 | -3.12835 | 19892 ft | 387 kts | 338° |
| 2026-04-20 21:09 | 55.22072 | -3.14645 | 19253 ft | 379 kts | 338° |
| 2026-04-20 21:09 | 55.24490 | -3.16428 | 18349 ft | 375 kts | 338° |
| 2026-04-20 21:10 | 55.26849 | -3.18170 | 17944 ft | 356 kts | 338° |
| 2026-04-20 21:10 | 55.29102 | -3.19571 | 17741 ft | 333 kts | 348° |
| 2026-04-20 21:10 | 55.31350 | -3.20107 | 17208 ft | 322 kts | 2° |
| 2026-04-20 21:10 | 55.33567 | -3.19863 | 16513 ft | 318 kts | 8° |
| 2026-04-20 21:11 | 55.35766 | -3.19495 | 15848 ft | 316 kts | 8° |
| 2026-04-20 21:11 | 55.37939 | -3.19145 | 15213 ft | 313 kts | 8° |
| 2026-04-20 21:11 | 55.40099 | -3.18807 | 14581 ft | 310 kts | 8° |
| 2026-04-20 21:11 | 55.42230 | -3.18479 | 13956 ft | 306 kts | 7° |
| 2026-04-20 21:12 | 55.44344 | -3.18153 | 13338 ft | 303 kts | 8° |
| 2026-04-20 21:12 | 55.46430 | -3.17830 | 12712 ft | 300 kts | 8° |
| 2026-04-20 21:12 | 55.48463 | -3.17515 | 12178 ft | 295 kts | 7° |
| 2026-04-20 21:12 | 55.50496 | -3.17199 | 11672 ft | 291 kts | 8° |
| 2026-04-20 21:13 | 55.52531 | -3.16875 | 11200 ft | 295 kts | 8° |
| 2026-04-20 21:13 | 55.54561 | -3.16554 | 10937 ft | 291 kts | 8° |
| 2026-04-20 21:13 | 55.56565 | -3.16237 | 10383 ft | 288 kts | 8° |
| 2026-04-20 21:13 | 55.58543 | -3.15928 | 9853 ft | 283 kts | 8° |
| 2026-04-20 21:14 | 55.60495 | -3.15620 | 9254 ft | 280 kts | 8° |
| 2026-04-20 21:14 | 55.62434 | -3.15539 | 8632 ft | 280 kts | 352° |
| 2026-04-20 21:14 | 55.64226 | -3.16852 | 8072 ft | 282 kts | 324° |
| 2026-04-20 21:14 | 55.65519 | -3.19438 | 7473 ft | 283 kts | 303° |
| 2026-04-20 21:15 | 55.66510 | -3.22453 | 6884 ft | 283 kts | 300° |
| 2026-04-20 21:15 | 55.67452 | -3.25498 | 6307 ft | 282 kts | 300° |
| 2026-04-20 21:15 | 55.68390 | -3.28561 | 6034 ft | 280 kts | 300° |
| 2026-04-20 21:15 | 55.69313 | -3.31579 | 5999 ft | 280 kts | 300° |
| 2026-04-20 21:16 | 55.70240 | -3.34618 | 5887 ft | 280 kts | 300° |
| 2026-04-20 21:16 | 55.71162 | -3.37642 | 5572 ft | 279 kts | 300° |
| 2026-04-20 21:16 | 55.72081 | -3.40664 | 5262 ft | 277 kts | 300° |
| 2026-04-20 21:16 | 55.72993 | -3.43669 | 4954 ft | 276 kts | 300° |
| 2026-04-20 21:17 | 55.73885 | -3.46625 | 4626 ft | 276 kts | 300° |
| 2026-04-20 21:17 | 55.74798 | -3.49661 | 4324 ft | 275 kts | 300° |
| 2026-04-20 21:17 | 55.75671 | -3.52592 | 4053 ft | 271 kts | 300° |
| 2026-04-20 21:17 | 55.76535 | -3.55495 | 3991 ft | 259 kts | 299° |
| 2026-04-20 21:18 | 55.77354 | -3.58250 | 4006 ft | 247 kts | 300° |
| 2026-04-20 21:18 | 55.78149 | -3.60922 | 4003 ft | 244 kts | 299° |
| 2026-04-20 21:18 | 55.78940 | -3.63583 | 4003 ft | 244 kts | 300° |
| 2026-04-20 21:18 | 55.79808 | -3.66148 | 3999 ft | 241 kts | 316° |
| 2026-04-20 21:19 | 55.81157 | -3.67748 | 3849 ft | 231 kts | 347° |
| 2026-04-20 21:19 | 55.82692 | -3.67813 | 3588 ft | 217 kts | 20° |
| 2026-04-20 21:19 | 55.84081 | -3.66860 | 3355 ft | 212 kts | 29° |
| 2026-04-20 21:20 | 55.86072 | -3.63412 | 3003 ft | 192 kts | 61° |
| 2026-04-20 21:20 | 55.86748 | -3.61446 | 2952 ft | 181 kts | 61° |
| 2026-04-20 21:20 | 55.87386 | -3.59585 | 2783 ft | 174 kts | 61° |
| 2026-04-20 21:20 | 55.88009 | -3.57764 | 2537 ft | 170 kts | 60° |
| 2026-04-20 21:21 | 55.88608 | -3.56012 | 2336 ft | 162 kts | 60° |
| 2026-04-20 21:21 | 55.89178 | -3.54347 | 2126 ft | 155 kts | 60° |
| 2026-04-20 21:21 | 55.89736 | -3.52711 | 1922 ft | 152 kts | 60° |
| 2026-04-20 21:21 | 55.90287 | -3.51096 | 1722 ft | 153 kts | 59° |
| 2026-04-20 21:22 | 55.90839 | -3.49479 | 1520 ft | 152 kts | 59° |
| 2026-04-20 21:22 | 55.91387 | -3.47872 | 1320 ft | 151 kts | 59° |
| 2026-04-20 21:22 | 55.91915 | -3.46321 | 1109 ft | 142 kts | 59° |
| 2026-04-20 21:22 | 55.92419 | -3.44842 | 935 ft | 138 kts | 59° |
| 2026-04-20 21:23 | 55.92915 | -3.43385 | 756 ft | 137 kts | 59° |
| 2026-04-20 21:23 | 55.93408 | -3.41939 | 560 ft | 136 kts | 59° |
| 2026-04-20 21:23 | 55.93901 | -3.40489 | 383 ft | 137 kts | 59° |
| 2026-04-20 21:23 | 55.94392 | -3.39040 | 212 ft | 137 kts | 59° |
| 2026-04-20 21:24 | 55.94872 | -3.37621 | 113 ft | 121 kts | 59° |
| 2026-04-20 21:24 | 55.95151 | -3.36796 | 113 ft | 34 kts | 58° |
| 2026-04-20 21:24 | 55.95254 | -3.36495 | 111 ft | 12 kts | 59° |
| 2026-04-20 21:24 | 55.95227 | -3.36386 | 111 ft | 11 kts | 150° |
| 2026-04-20 21:25 | 55.95169 | -3.36323 | 114 ft | 4 kts | 149° |
| 2026-04-20 21:25 | 55.95159 | -3.36313 | 116 ft | 0 kts | 149° |
| 2026-04-20 21:25 | 55.95153 | -3.36307 | 116 ft | 2 kts | 156° |
| 2026-04-20 21:26 | 55.95131 | -3.36310 | 114 ft | 4 kts | 199° |
| 2026-04-20 21:26 | 55.95107 | -3.36361 | 115 ft | 7 kts | 238° |
| 2026-04-20 21:26 | 55.95063 | -3.36398 | 114 ft | 9 kts | 166° |
| 2026-04-20 21:26 | 55.95013 | -3.36379 | 113 ft | 7 kts | 233° |
| 2026-04-20 21:27 | 55.94994 | -3.36457 | 116 ft | 5 kts | 242° |
| 2026-04-20 21:27 | 55.94991 | -3.36466 | 114 ft | 0 kts | 240° |
| 2026-04-20 21:27 | 55.94986 | -3.36481 | 112 ft | 3 kts | 240° |
| 2026-04-20 21:28 | 55.94970 | -3.36528 | 115 ft | 6 kts | 239° |
| 2026-04-20 21:28 | 55.94934 | -3.36527 | 114 ft | 7 kts | 144° |
| 2026-04-20 21:28 | 55.94908 | -3.36498 | 113 ft | 1 kts | 149° |
| 2026-04-20 21:28 | 55.94906 | -3.36496 | 116 ft | 0 kts | 148° |